Latest Conditions
At L.F.Wade Int. Airport
Recorded at 9:55 am
Mostly Cloudy
Temp.: 
22°C/72°F
Humidity: 
82%
Wind: 
WSW 24KT
or 28mph
UV Index: 
2
Island Observations
 
Observations
Friday, February 03, 2023

Observations are in local time and taken at least once an hour, or upon the start and end of specified events such as showers and thunderstorms.

Time Sky / Weather Wind Speed/Gusts Temp. R.H. Pressure
     knots (mph)  °C (°F)  %  mb / "Hg
 09:55 Mostly Cloudy  WSW 24/0 (28/0) 22(72) 82 1015 / 29.97
 08:55 Partly Cloudy  WSW 23/0 (26/0) 22(71) 86 1015 / 29.96
 07:55 Partly Cloudy  SW 21/0 (24/0) 21(70) 90 1015 / 29.96
 06:55 Partly Cloudy  WSW 19/0 (22/0) 21(70) 91 1015 / 29.96
 05:55 Partly Cloudy  WSW 20/0 (23/0) 21(69) 90 1014 / 29.95
 04:55 Partly Cloudy  SW 20/0 (23/0) 21(70) 90 1014 / 29.95
 03:55 Partly Cloudy  SW 21/0 (24/0) 21(69) 90 1015 / 29.96
 03:42 Mostly Cloudy Showers WSW 21/0 (24/0) 21(69) 90 1015 / 29.96
 03:28 Mostly Cloudy Showers WSW 22/0 (25/0) 21(70) 90 1015 / 29.97
 02:55 Mostly Cloudy  SW 20/0 (23/0) 21(69) 89 1015 / 29.98
 01:55 Few Clouds  SW 18/0 (21/0) 20(69) 90 1016 / 30.01
 00:55 Few Clouds  SW 19/0 (22/0) 20(69) 91 1017 / 30.02
 23:55 Few Clouds  SW 16/0 (18/0) 20(68) 88 1017 / 30.04
 22:55 Few Clouds  SW 16/0 (18/0) 20(67) 87 1018 / 30.07
 21:55 Few Clouds  SW 15/0 (17/0) 20(67) 85 1019 / 30.08
 20:55 Few Clouds  SW 12/0 (14/0) 19(67) 83 1019 / 30.10
 19:55 Partly Cloudy  SSW 13/0 (15/0) 20(67) 85 1019 / 30.09
 18:55 Mostly Cloudy  SSW 11/0 (13/0) 19(67) 83 1019 / 30.09
 17:55 Mostly Cloudy Showers SW 11/0 (13/0) 20(67) 85 1019 / 30.09
 17:37 Mostly Cloudy Showers SW 11/0 (13/0) 20(68) 85 1019 / 30.09
 16:55 Mostly Cloudy Showers SSW 7/0 (8/0) 20(68) 83 1019 / 30.10
 16:18 Mostly Cloudy Showers SSW 8/0 (9/0) 20(68) 80 1019 / 30.09
 15:55 Mostly Cloudy  S 8/0 (9/0) 21(69) 77 1019 / 30.09
 14:55 Mostly Cloudy Showers SSE 10/0 (12/0) 21(70) 75 1019 / 30.10
 13:55 Mostly Cloudy Showers ESE 9/0 (10/0) 21(69) 79 1020 / 30.12
 12:55 Mostly Cloudy Showers ESE 9/0 (10/0) 21(70) 74 1021 / 30.15
 11:55 Mostly Cloudy Showers E 10/0 (12/0) 22(71) 69 1022 / 30.17
 10:55 Mostly Cloudy Showers ESE 8/0 (9/0) 21(70) 74 1022 / 30.18
 09:55 Mostly Cloudy  ENE 8/0 (9/0) 20(69) 77 1022 / 30.17
 08:55 Mostly Cloudy Showers ENE 7/0 (8/0) 20(68) 81 1021 / 30.15
 07:55 Mostly Cloudy  NE 8/0 (9/0) 19(66) 87 1021 / 30.14
 06:55 Mostly Cloudy Showers N 7/0 (8/0) 19(66) 90 1020 / 30.12
 05:55 Mostly Cloudy Showers N 8/0 (9/0) 19(67) 90 1019 / 30.09
 05:45 Mostly Cloudy Showers NNE 8/0 (9/0) 19(67) 89 1019 / 30.09
 04:55 Partly Cloudy  NW 5/0 (6/0) 20(67) 91 1018 / 30.07
 03:55 Mostly Cloudy Showers WNW 11/0 (13/0) 20(67) 92 1019 / 30.08
 02:55 Overcast  W 9/0 (10/0) 19(67) 89 1018 / 30.07
 02:37 Mostly Cloudy Showers W 13/0 (15/0) 19(67) 91 1018 / 30.07
 01:57 Overcast Showers NW 12/0 (14/0) 19(66) 93 1019 / 30.08
 01:55 Overcast Showers W 13/0 (15/0) 19(65) 92 1019 / 30.08
 00:55 Mostly Cloudy  W 13/0 (15/0) 20(69) 95 1019 / 30.09
 00:09 Mostly Cloudy  W 12/0 (14/0) 20(69) 94 1019 / 30.09
 23:55 Mostly Cloudy  W 12/0 (14/0) 20(69) 94 1019 / 30.09
 23:32 Mostly Cloudy  W 12/0 (14/0) 20(69) 94 1019 / 30.09
 22:55 Mostly Cloudy  W 13/0 (15/0) 20(69) 94 1019 / 30.09
 21:55 Mostly Cloudy  W 15/0 (17/0) 21(70) 92 1019 / 30.09
 20:55 Mostly Cloudy  W 15/0 (17/0) 21(69) 93 1018 / 30.07
 20:36 Mostly Cloudy  W 14/0 (16/0) 20(69) 93 1018 / 30.07
 19:55 Mostly Cloudy  W 14/0 (16/0) 21(69) 92 1018 / 30.07
 18:55 Mostly Cloudy  W 13/0 (15/0) 21(69) 90 1018 / 30.07
 17:55 Mostly Cloudy  WSW 13/0 (15/0) 20(69) 89 1018 / 30.05
 16:55 Overcast  WSW 15/0 (17/0) 20(69) 85 1018 / 30.06
 15:55 Overcast  WSW 15/0 (17/0) 21(69) 81 1018 / 30.05
 14:55 Mostly Cloudy  WSW 15/0 (17/0) 21(69) 78 1018 / 30.06
 13:55 Mostly Cloudy  WSW 16/0 (18/0) 21(70) 74 1018 / 30.07
 12:55 Mostly Cloudy  W 12/0 (14/0) 22(71) 72 1019 / 30.09
 11:55 Mostly Cloudy  W 11/0 (13/0) 21(70) 72 1020 / 30.13
 10:55 Few Clouds  W 11/0 (13/0) 21(70) 73 1021 / 30.15
 09:55 Mostly Cloudy  W 10/0 (12/0) 20(69) 75 1021 / 30.15
 08:55 Partly Cloudy  W 8/0 (9/0) 20(67) 76 1020 / 30.13
 07:55 Partly Cloudy  WNW 7/0 (8/0) 19(65) 82 1020 / 30.12
 06:55 Mostly Cloudy  WNW 6/0 (7/0) 19(66) 83 1020 / 30.11
 05:55 Partly Cloudy  NW 9/0 (10/0) 19(66) 85 1019 / 30.10
 04:55 Few Clouds  NNW 7/0 (8/0) 19(66) 87 1019 / 30.09
 03:55 Few Clouds  NW 8/0 (9/0) 19(66) 87 1019 / 30.08
 02:55 Few Clouds  NW 6/0 (7/0) 19(66) 86 1019 / 30.09
 01:55 Few Clouds  NNW 5/0 (6/0) 19(66) 86 1019 / 30.09
 00:55 Few Clouds  NNW 7/0 (8/0) 19(66) 87 1020 / 30.11
 23:55 Few Clouds  N 9/0 (10/0) 19(66) 87 1020 / 30.12
 22:55 Few Clouds  NNW 10/0 (12/0) 19(67) 86 1021 / 30.15
 21:55 Mostly Cloudy Showers NW 10/0 (12/0) 20(67) 86 1021 / 30.15
 20:55 Mostly Cloudy  NNW 8/0 (9/0) 20(68) 85 1021 / 30.14
 19:55 Overcast  NNW 9/0 (10/0) 20(68) 84 1020 / 30.12
 18:55 Mostly Cloudy  NW 10/0 (12/0) 20(68) 78 1020 / 30.11
 17:55 Mostly Cloudy Showers NNW 11/0 (13/0) 20(68) 86 1019 / 30.09
 16:55 Mostly Cloudy  NW 7/0 (8/0) 21(69) 81 1018 / 30.07
 15:55 Mostly Cloudy  W 11/0 (13/0) 21(69) 79 1018 / 30.05
 14:55 Mostly Cloudy  W 13/0 (15/0) 21(70) 79 1018 / 30.05
 13:55 Mostly Cloudy  WNW 12/0 (14/0) 21(71) 82 1018 / 30.06
 12:55 Few Clouds  WNW 11/0 (13/0) 22(71) 81 1019 / 30.08
 12:11 Mostly Cloudy Showers W 10/0 (12/0) 21(70) 92 1019 / 30.09
 11:55 Mostly Cloudy Showers WSW 12/0 (14/0) 22(71) 88 1020 / 30.11
 11:04 Overcast Showers W 10/0 (12/0) 21(70) 92 1020 / 30.12
 10:55 Overcast Showers SW 12/0 (14/0) 21(70) 90 1020 / 30.12
 10:40 Mostly Cloudy Showers WSW 13/0 (15/0) 22(71) 88 1020 / 30.12
 10:22 Mostly Cloudy Showers WSW 12/0 (14/0) 21(71) 88 1020 / 30.13
 09:55 Mostly Cloudy Showers SW 12/0 (14/0) 21(70) 87 1020 / 30.12
 08:55 Mostly Cloudy  SW 12/0 (14/0) 21(69) 89 1020 / 30.11
 07:55 Mostly Cloudy Showers SSW 9/0 (10/0) 20(68) 90 1020 / 30.12
 06:55 Overcast Showers SSW 11/0 (13/0) 20(68) 82 1019 / 30.10
 05:55 Overcast  SSW 11/0 (13/0) 20(68) 78 1019 / 30.10
 04:55 Overcast  SSW 9/0 (10/0) 20(68) 76 1020 / 30.11
 03:55 Overcast  SW 9/0 (10/0) 20(67) 75 1020 / 30.12
 02:55 Overcast  SSW 9/0 (10/0) 20(67) 75 1020 / 30.13
 01:55 Overcast  SSW 8/0 (9/0) 19(67) 74 1021 / 30.15
 00:55 Overcast  SSW 8/0 (9/0) 19(66) 74 1022 / 30.17
 23:55 Overcast  S 8/0 (9/0) 19(66) 73 1022 / 30.18
 22:55 Overcast  S 8/0 (9/0) 19(66) 70 1023 / 30.20
 21:55 Overcast  S 7/0 (8/0) 19(66) 70 1023 / 30.22
 20:55 Mostly Cloudy  S 6/0 (7/0) 19(66) 70 1023 / 30.22
Island AWOS